Aeroporto :
LOGIN :

Iscrizione | Disclaimer

   EN    FR    IT 

 










Sommario :    VFR   VFR Marginale   IFR   IFR Intensivo   IFR Molto Intensivo
Visibilità : 
Base nubi : 
>= 8 km
>= 3000ft
5 / 8 km
1000 / 3000 ft
1500m / 5 km
500 / 1000 ft
800 / 1500m
200 / 500 ft
< 800m
< 200 ft
Simboli :   Temporali  Nebbia  Neve Forte  Precipitazioni Forti  Vento > 20 kt
SIGMETs :   Varie  Temporali  Ghiacco  Turbolenza  Onda orograficha  Ceneri Vulcaniche






- Altitudine del aeroporto : 1674 ft
- Codice IATA : BRN


LSZB - Bern Belp

ULTIMO METAR :
  • 202150Z AUTO VRB03KT CAVOK 00/M00 Q1024

METARs OBSOLETI :
  • 202120Z AUTO VRB01KT CAVOK 00/M00 Q1023
  • 202050Z AUTO VRB02KT CAVOK 01/00 Q1022
  • 202020Z AUTO VRB01KT CAVOK 01/00 Q1022
  • 201950Z AUTO VRB02KT CAVOK 01/M01 Q1021
  • 201920Z AUTO VRB02KT CAVOK 03/01 Q1021
  • 201850Z 13006KT CAVOK 02/01 Q1021 NOSIG

TAF TAF LSZB
Valido dal 20 a 15 ore il 21 a 00 ore UTC


201425Z 2015/2024 30007KT CAVOK
BECMG 2020/2023 9999 BKN050
PROB30 2022/2024 30015G25KT
ATIS : +41 22 417 40 76



MetMap, La meteo Aeronautica in un colpo d'occhio ! - Copyright ORBIFLY Dicembre 2007 - Disclaimer

ORBIFLY MET'MAP TEAM :

Programmazione e sviluppo : Alexandra Zaïnal
Concezione : Baudouin d'Aumeries
Aiuto per la programmazione : Marc-Olivier Méhu
Supporto tecnico e logistico : Manuel Goepfert
Aiuto per la traduzione : Arnaldo La Scala

Contatto : metmap@orbifly.com




FONTI E CREDITI :

   NOAA